createdAt,value
2022-08-11T00:01:55.038Z,6.90
2022-08-11T00:04:24.478Z,8.30
2022-08-11T00:06:52.434Z,8.98
2022-08-11T00:09:22.477Z,7.80
2022-08-11T00:11:52.991Z,8.52
2022-08-11T00:14:25.609Z,9.32
2022-08-11T00:17:10.742Z,10.27
2022-08-11T00:20:12.164Z,8.38
2022-08-11T00:22:44.951Z,8.85
2022-08-11T00:25:13.919Z,9.57
2022-08-11T00:27:41.209Z,9.82
2022-08-11T00:30:09.652Z,10.70
2022-08-11T00:32:39.402Z,8.60
2022-08-11T00:35:51.846Z,8.75
2022-08-11T00:37:59.309Z,9.15
2022-08-11T00:40:39.309Z,8.43
2022-08-11T00:43:30.824Z,9.18
2022-08-11T00:46:17.407Z,10.55
2022-08-11T00:49:15.897Z,9.30
2022-08-11T00:52:05.175Z,9.65
2022-08-11T00:54:38.518Z,10.82
2022-08-11T00:57:30.110Z,9.63
2022-08-11T01:00:13.902Z,11.60
2022-08-11T01:03:11.829Z,9.70
2022-08-11T01:06:03.021Z,10.73
2022-08-11T01:09:02.533Z,10.73
2022-08-11T01:11:55.135Z,10.68
2022-08-11T01:14:33.742Z,10.98
2022-08-11T01:17:33.718Z,11.50
2022-08-11T01:20:47.481Z,9.98
2022-08-11T01:23:33.963Z,10.98
2022-08-11T01:26:27.110Z,9.57
2022-08-11T01:29:35.931Z,10.73
2022-08-11T01:32:23.452Z,11.02
2022-08-11T01:35:05.856Z,9.13
2022-08-11T01:37:47.432Z,13.18
2022-08-11T01:40:26.176Z,12.18
2022-08-11T01:43:15.124Z,10.00
2022-08-11T01:45:55.795Z,10.85
2022-08-11T01:48:48.732Z,11.55
2022-08-11T01:51:21.190Z,13.32
2022-08-11T01:53:57.071Z,10.95
2022-08-11T01:56:52.873Z,11.70
2022-08-11T01:59:34.726Z,13.57
2022-08-11T02:02:25.945Z,9.82
2022-08-11T02:05:27.909Z,9.68
2022-08-11T02:10:50.488Z,9.73
2022-08-11T02:13:48.868Z,12.40
2022-08-11T02:16:34.518Z,10.23
2022-08-11T02:19:12.150Z,11.25
2022-08-11T02:21:45.752Z,11.57
2022-08-11T02:24:26.701Z,11.02
2022-08-11T02:27:04.844Z,10.85
2022-08-11T02:29:41.344Z,11.45
2022-08-11T02:32:28.884Z,12.50
2022-08-11T02:35:12.153Z,10.88
2022-08-11T02:37:58.438Z,11.48
2022-08-11T02:40:43.006Z,10.60
2022-08-11T02:44:00.747Z,11.93
2022-08-11T02:46:36.953Z,12.35
2022-08-11T02:49:03.229Z,13.48
2022-08-11T02:51:39.830Z,12.25
2022-08-11T02:54:35.629Z,12.85
2022-08-11T02:57:23.764Z,11.13
2022-08-11T03:00:08.161Z,11.48
2022-08-11T03:02:50.040Z,13.30
2022-08-11T03:05:25.993Z,12.50
2022-08-11T03:08:14.371Z,11.02
2022-08-11T03:11:08.637Z,11.77
2022-08-11T03:13:42.499Z,11.40
2022-08-11T03:16:18.749Z,13.52
2022-08-11T03:18:50.847Z,12.85
2022-08-11T03:22:01.134Z,10.70
2022-08-11T03:24:21.004Z,9.90
2022-08-11T03:27:03.311Z,11.65
2022-08-11T03:29:44.579Z,11.77
2022-08-11T03:32:27.264Z,11.95
2022-08-11T03:34:55.479Z,10.07
2022-08-11T03:37:39.125Z,10.82
2022-08-11T03:40:15.899Z,12.05
2022-08-11T03:42:53.930Z,13.02
2022-08-11T03:45:40.729Z,11.43
2022-08-11T03:48:38.185Z,11.23
2022-08-11T03:51:26.077Z,9.80
2022-08-11T03:54:38.130Z,15.05
2022-08-11T03:57:10.585Z,14.45
2022-08-11T04:00:03.001Z,12.35
2022-08-11T04:03:07.958Z,13.65
2022-08-11T04:06:14.814Z,11.13
2022-08-11T04:08:59.937Z,11.43
2022-08-11T04:11:35.272Z,10.93
2022-08-11T04:14:32.592Z,12.50
2022-08-11T04:17:16.926Z,12.70
2022-08-11T04:20:08.432Z,11.18
2022-08-11T04:22:46.773Z,11.18
2022-08-11T04:25:57.890Z,13.10
2022-08-11T04:28:50.090Z,10.85
2022-08-11T04:31:44.347Z,11.27
2022-08-11T04:34:24.394Z,12.55
2022-08-11T04:37:20.117Z,12.45
2022-08-11T04:40:23.648Z,10.77
2022-08-11T04:43:20.973Z,9.07
2022-08-11T04:46:06.505Z,11.45
2022-08-11T04:48:45.204Z,12.43
2022-08-11T04:51:46.307Z,13.60
2022-08-11T04:54:43.367Z,12.98
2022-08-11T04:57:19.723Z,12.27
2022-08-11T05:00:01.335Z,9.98
2022-08-11T05:03:01.317Z,9.55
2022-08-11T05:06:05.400Z,10.63
2022-08-11T05:08:56.319Z,13.02
2022-08-11T05:12:01.603Z,12.90
2022-08-11T05:14:33.689Z,14.15
2022-08-11T05:17:14.442Z,18.23
2022-08-11T05:19:46.405Z,14.60
2022-08-11T05:24:47.438Z,11.75
2022-08-11T05:27:18.441Z,14.75
2022-08-11T05:29:52.067Z,16.45
2022-08-11T05:32:18.755Z,17.08
2022-08-11T05:34:50.971Z,17.10
2022-08-11T05:37:31.132Z,16.23
2022-08-11T05:40:05.601Z,13.30
2022-08-11T05:42:34.478Z,14.48
2022-08-11T05:45:15.697Z,13.35
2022-08-11T05:47:42.969Z,10.88
2022-08-11T05:50:15.295Z,10.57
2022-08-11T05:52:46.924Z,10.73
2022-08-11T05:55:16.402Z,9.55
2022-08-11T05:57:51.632Z,9.95
2022-08-11T06:00:19.282Z,10.88
2022-08-11T06:02:52.918Z,10.07
2022-08-11T06:05:19.768Z,9.57
2022-08-11T06:07:49.427Z,11.60
2022-08-11T06:10:28.784Z,10.35
2022-08-11T06:12:57.276Z,10.02
2022-08-11T06:15:25.681Z,10.18
2022-08-11T06:17:52.410Z,8.30
2022-08-11T06:20:19.902Z,10.23
2022-08-11T06:22:55.170Z,10.70
2022-08-11T06:25:22.429Z,10.45
2022-08-11T06:27:55.529Z,9.75
2022-08-11T06:30:33.816Z,11.93
2022-08-11T06:33:01.557Z,10.55
2022-08-11T06:35:49.813Z,9.50
2022-08-11T06:38:38.646Z,8.52
2022-08-11T06:41:28.991Z,9.70
2022-08-11T06:44:17.400Z,8.98
2022-08-11T06:46:51.072Z,10.35
2022-08-11T06:49:22.904Z,13.93
2022-08-11T06:51:49.507Z,10.45
2022-08-11T06:54:17.010Z,9.02
2022-08-11T06:56:46.545Z,9.57
2022-08-11T06:59:15.123Z,10.75
2022-08-11T07:02:16.997Z,8.60
2022-08-11T07:04:56.305Z,7.78
2022-08-11T07:08:34.853Z,8.55
2022-08-11T07:11:29.817Z,8.82
2022-08-11T07:14:01.020Z,7.63
2022-08-11T07:19:06.313Z,8.43
2022-08-11T07:22:00.458Z,9.77
2022-08-11T07:24:58.432Z,7.82
2022-08-11T07:27:17.277Z,10.38
2022-08-11T07:29:47.441Z,7.20
2022-08-11T07:32:25.670Z,7.78
2022-08-11T07:34:59.225Z,8.88
2022-08-11T07:37:27.594Z,8.52
2022-08-11T07:39:54.653Z,6.78
2022-08-11T07:42:26.393Z,7.32
2022-08-11T07:44:53.449Z,6.40
2022-08-11T07:47:20.953Z,7.55
2022-08-11T07:49:50.240Z,6.40
2022-08-11T07:52:17.729Z,6.28
2022-08-11T07:54:46.352Z,6.95
2022-08-11T07:58:05.561Z,6.28
2022-08-11T08:00:05.376Z,7.88
2022-08-11T08:02:32.955Z,5.82
2022-08-11T08:04:59.481Z,6.55
2022-08-11T08:07:26.414Z,7.03
2022-08-11T08:09:54.854Z,6.85
2022-08-11T08:12:23.456Z,6.10
2022-08-11T08:14:54.816Z,4.38
2022-08-11T08:17:22.456Z,7.75
2022-08-11T08:19:49.847Z,7.07
2022-08-11T08:22:37.818Z,6.60
2022-08-11T08:25:06.751Z,5.68
2022-08-11T08:27:35.440Z,5.70
2022-08-11T08:30:04.629Z,6.35
2022-08-11T08:32:32.360Z,5.60
2022-08-11T08:34:59.617Z,5.30
2022-08-11T08:37:47.169Z,4.70
2022-08-11T08:40:15.167Z,6.90
2022-08-11T08:42:52.541Z,7.38
2022-08-11T08:45:19.623Z,8.13
2022-08-11T08:47:53.515Z,6.05
2022-08-11T08:50:27.888Z,4.13
2022-08-11T08:53:06.243Z,5.20
2022-08-11T08:55:33.783Z,5.65
2022-08-11T08:58:01.636Z,4.65
2022-08-11T09:00:40.198Z,7.53
2022-08-11T09:03:23.208Z,4.75
2022-08-11T09:05:56.974Z,7.40
2022-08-11T09:08:24.579Z,6.15
2022-08-11T09:10:51.622Z,5.90
2022-08-11T09:13:18.247Z,6.45
2022-08-11T09:15:45.510Z,6.50
2022-08-11T09:18:12.602Z,4.95
2022-08-11T09:20:39.478Z,6.65
2022-08-11T09:26:00.528Z,6.13
2022-08-11T09:28:29.738Z,5.22
2022-08-11T09:30:58.238Z,4.70
2022-08-11T09:33:25.204Z,5.65
2022-08-11T09:35:52.900Z,7.65
2022-08-11T09:38:22.822Z,5.90
2022-08-11T09:42:23.773Z,5.60
2022-08-11T09:43:40.978Z,4.97
2022-08-11T09:46:09.533Z,5.43
2022-08-11T09:48:39.708Z,6.82
2022-08-11T09:51:08.580Z,5.88
2022-08-11T09:53:41.238Z,7.95
2022-08-11T09:56:14.639Z,5.13
2022-08-11T09:58:44.657Z,6.60
2022-08-11T10:01:13.106Z,6.05
2022-08-11T10:03:42.860Z,5.65
2022-08-11T10:06:10.541Z,6.28
2022-08-11T10:08:40.707Z,5.20
2022-08-11T10:11:11.205Z,5.93
2022-08-11T10:14:30.375Z,4.85
2022-08-11T10:16:30.500Z,8.32
2022-08-11T10:18:59.882Z,8.63
2022-08-11T10:21:37.181Z,7.32
2022-08-11T10:24:06.092Z,5.20
2022-08-11T10:26:33.480Z,4.80
2022-08-11T10:29:13.180Z,6.00
2022-08-11T10:31:56.745Z,6.53
2022-08-11T10:34:24.542Z,5.95
2022-08-11T10:36:54.497Z,4.43
2022-08-11T10:39:22.184Z,4.50
2022-08-11T10:42:03.424Z,4.68
2022-08-11T10:44:43.291Z,5.55
2022-08-11T10:47:12.460Z,5.85
2022-08-11T10:49:40.076Z,4.85
2022-08-11T10:52:06.654Z,4.82
2022-08-11T10:54:34.685Z,4.35
2022-08-11T10:57:01.530Z,4.93
2022-08-11T10:59:29.111Z,5.13
2022-08-11T11:01:56.041Z,6.65
2022-08-11T11:04:45.579Z,4.47
2022-08-11T11:07:21.013Z,5.60
2022-08-11T11:09:50.737Z,5.22
2022-08-11T11:12:33.657Z,4.97
2022-08-11T11:15:03.446Z,6.00
2022-08-11T11:17:41.042Z,5.40
2022-08-11T11:20:08.626Z,3.50
2022-08-11T11:22:59.708Z,4.07
2022-08-11T11:25:55.434Z,5.32
2022-08-11T11:28:34.258Z,5.10
2022-08-11T11:31:17.469Z,5.22
2022-08-11T11:34:20.108Z,4.35
2022-08-11T11:36:55.596Z,4.05
2022-08-11T11:39:25.248Z,7.03
2022-08-11T11:41:54.544Z,4.63
2022-08-11T11:44:22.120Z,4.15
2022-08-11T11:46:49.650Z,4.68
2022-08-11T11:51:52.389Z,3.83
2022-08-11T11:54:25.001Z,4.40
2022-08-11T11:56:52.998Z,4.43
2022-08-11T11:59:21.283Z,5.22
2022-08-11T12:01:50.209Z,6.85
2022-08-11T12:04:20.184Z,5.95
2022-08-11T12:06:47.096Z,6.60
2022-08-11T12:09:14.549Z,4.13
2022-08-11T12:11:41.325Z,4.47
2022-08-11T12:14:11.360Z,6.20
2022-08-11T12:16:41.377Z,6.13
2022-08-11T12:19:12.856Z,6.85
2022-08-11T12:21:40.612Z,5.43
2022-08-11T12:24:17.794Z,6.32
2022-08-11T12:26:45.501Z,4.28
2022-08-11T12:29:32.878Z,5.97
2022-08-11T12:31:59.506Z,7.45
2022-08-11T12:34:28.346Z,4.60
2022-08-11T12:37:00.869Z,4.30
2022-08-11T12:40:15.706Z,4.13
2022-08-11T12:42:20.717Z,4.43
2022-08-11T12:44:47.825Z,4.43
2022-08-11T12:47:20.663Z,5.30
2022-08-11T12:49:51.594Z,5.05
2022-08-11T12:52:27.323Z,5.07
2022-08-11T12:55:08.502Z,4.10
2022-08-11T12:57:41.875Z,13.18
2022-08-11T13:00:09.800Z,4.32
2022-08-11T13:02:39.988Z,4.00
2022-08-11T13:05:12.817Z,5.78
2022-08-11T13:07:51.139Z,5.13
2022-08-11T13:10:20.068Z,6.13
2022-08-11T13:12:46.612Z,4.88
2022-08-11T13:15:17.091Z,6.10
2022-08-11T13:17:44.818Z,4.75
2022-08-11T13:20:12.888Z,5.63
2022-08-11T13:22:42.060Z,4.97
2022-08-11T13:25:09.373Z,4.68
2022-08-11T13:27:43.206Z,7.25
2022-08-11T13:30:10.275Z,6.63
2022-08-11T13:32:36.921Z,5.57
2022-08-11T13:35:04.066Z,4.63
2022-08-11T13:38:17.656Z,3.85
2022-08-11T13:40:33.207Z,4.40
2022-08-11T13:43:10.298Z,6.13
2022-08-11T13:45:37.570Z,4.40
2022-08-11T13:48:08.657Z,4.13
2022-08-11T13:50:37.397Z,4.75
2022-08-11T13:53:03.865Z,4.90
2022-08-11T13:55:51.822Z,5.40
2022-08-11T13:58:39.864Z,5.38
2022-08-11T14:01:11.267Z,4.60
2022-08-11T14:04:30.098Z,4.95
2022-08-11T14:06:50.681Z,4.10
2022-08-11T14:09:25.038Z,3.85
2022-08-11T14:12:22.401Z,4.15
2022-08-11T14:14:40.417Z,5.13
2022-08-11T14:17:07.434Z,5.13
2022-08-11T14:19:36.382Z,5.75
2022-08-11T14:22:07.619Z,6.50
2022-08-11T14:24:37.959Z,4.93
2022-08-11T14:27:06.341Z,4.68
2022-08-11T14:29:34.004Z,4.38
2022-08-11T14:32:15.289Z,3.97
2022-08-11T14:34:43.643Z,4.80
2022-08-11T14:37:13.377Z,6.65
2022-08-11T14:40:02.233Z,4.70
2022-08-11T14:42:29.705Z,4.47
2022-08-11T14:45:05.183Z,4.70
2022-08-11T14:47:34.720Z,3.40
2022-08-11T14:50:10.941Z,4.43
2022-08-11T14:53:00.349Z,3.88
2022-08-11T14:55:29.032Z,3.78
2022-08-11T14:57:56.911Z,4.28
2022-08-11T15:00:24.712Z,5.78
2022-08-11T15:02:51.451Z,3.53
2022-08-11T15:05:19.268Z,4.18
2022-08-11T15:07:45.933Z,3.45
2022-08-11T15:10:13.639Z,4.00
2022-08-11T15:12:41.569Z,4.32
2022-08-11T15:15:09.636Z,4.95
2022-08-11T15:17:43.346Z,3.95
2022-08-11T15:20:15.464Z,7.28
2022-08-11T15:22:41.861Z,3.85
2022-08-11T15:25:08.335Z,4.28
2022-08-11T15:27:36.357Z,5.47
2022-08-11T15:30:04.608Z,5.05
2022-08-11T15:32:32.624Z,4.90
2022-08-11T15:35:03.723Z,3.80
2022-08-11T15:40:06.404Z,5.63
2022-08-11T15:42:34.601Z,5.07
2022-08-11T15:45:04.666Z,3.63
2022-08-11T15:47:52.177Z,4.00
2022-08-11T15:50:20.229Z,4.25
2022-08-11T15:53:09.305Z,3.65
2022-08-11T15:55:37.770Z,7.22
2022-08-11T15:58:08.420Z,4.55
2022-08-11T16:00:37.891Z,3.60
2022-08-11T16:03:10.475Z,3.88
2022-08-11T16:05:45.482Z,3.17
2022-08-11T16:08:16.841Z,4.50
2022-08-11T16:10:54.149Z,4.57
2022-08-11T16:13:22.437Z,3.63
2022-08-11T16:15:55.300Z,4.47
2022-08-11T16:18:26.662Z,5.10
2022-08-11T16:20:55.551Z,4.47
2022-08-11T16:23:23.590Z,3.50
2022-08-11T16:27:05.523Z,4.05
2022-08-11T16:28:39.915Z,3.38
2022-08-11T16:31:07.894Z,3.60
2022-08-11T16:33:49.492Z,3.28
2022-08-11T16:36:20.263Z,5.00
2022-08-11T16:38:48.770Z,3.28
2022-08-11T16:41:18.626Z,3.63
2022-08-11T16:43:47.557Z,2.70
2022-08-11T16:46:16.816Z,4.80
2022-08-11T16:48:48.386Z,4.22
2022-08-11T16:51:15.623Z,4.63
2022-08-11T16:53:59.971Z,4.03
2022-08-11T16:56:41.729Z,4.72
2022-08-11T16:59:13.656Z,4.50
2022-08-11T17:02:07.407Z,4.00
2022-08-11T17:04:42.772Z,4.43
2022-08-11T17:07:40.536Z,4.63
2022-08-11T17:10:00.346Z,3.38
2022-08-11T17:12:31.109Z,4.75
2022-08-11T17:15:01.855Z,3.45
2022-08-11T17:17:34.062Z,3.63
2022-08-11T17:20:40.258Z,4.75
2022-08-11T17:22:53.629Z,4.72
2022-08-11T17:25:21.903Z,4.68
2022-08-11T17:27:50.646Z,5.15
2022-08-11T17:30:17.128Z,3.90
2022-08-11T17:32:57.023Z,4.13
2022-08-11T17:35:30.119Z,5.38
2022-08-11T17:38:21.364Z,4.53
2022-08-11T17:40:52.682Z,3.80
2022-08-11T17:43:19.088Z,3.80
2022-08-11T17:45:47.272Z,3.45
2022-08-11T17:48:14.957Z,4.07
2022-08-11T17:50:42.068Z,2.88
2022-08-11T17:53:10.916Z,2.15
2022-08-11T17:55:52.434Z,4.35
2022-08-11T17:58:20.814Z,3.70
2022-08-11T18:00:50.091Z,3.65
2022-08-11T18:03:17.517Z,3.95
2022-08-11T18:05:45.866Z,3.08
2022-08-11T18:08:13.586Z,4.22
2022-08-11T18:10:42.685Z,4.32
2022-08-11T18:13:10.283Z,4.95
2022-08-11T18:15:55.681Z,3.92
2022-08-11T18:18:22.511Z,5.43
2022-08-11T18:20:49.692Z,5.20
2022-08-11T18:23:45.583Z,5.88
2022-08-11T18:26:10.305Z,5.05
2022-08-11T18:28:44.928Z,2.63
2022-08-11T18:31:15.382Z,2.92
2022-08-11T18:34:06.264Z,4.85
2022-08-11T18:36:38.614Z,4.88
2022-08-11T18:39:09.315Z,5.25
2022-08-11T18:41:38.377Z,4.63
2022-08-11T18:44:07.142Z,5.60
2022-08-11T18:46:37.314Z,4.22
2022-08-11T18:49:17.524Z,6.70
2022-08-11T18:51:50.497Z,3.90
2022-08-11T18:54:19.702Z,4.03
2022-08-11T18:56:47.657Z,6.00
2022-08-11T18:59:17.866Z,4.78
2022-08-11T19:01:46.179Z,5.40
2022-08-11T19:04:17.394Z,3.80
2022-08-11T19:06:47.812Z,4.40
2022-08-11T19:09:17.608Z,3.95
2022-08-11T19:11:46.918Z,3.90
2022-08-11T19:14:14.624Z,4.55
2022-08-11T19:16:42.811Z,5.28
2022-08-11T19:19:10.439Z,5.15
2022-08-11T19:21:37.434Z,5.60
2022-08-11T19:24:06.552Z,2.70
2022-08-11T19:26:33.495Z,5.05
2022-08-11T19:29:01.833Z,3.97
2022-08-11T19:31:29.562Z,3.22
2022-08-11T19:34:02.890Z,3.25
2022-08-11T19:36:38.452Z,5.25
2022-08-11T19:39:04.874Z,4.70
2022-08-11T19:41:56.381Z,5.45
2022-08-11T19:44:21.452Z,4.68
2022-08-11T19:46:50.765Z,3.97
2022-08-11T19:49:19.040Z,3.78
2022-08-11T19:51:46.350Z,4.07
2022-08-11T19:54:13.537Z,5.00
2022-08-11T19:56:42.052Z,6.60
2022-08-11T19:59:09.945Z,4.97
2022-08-11T20:01:36.510Z,5.32
2022-08-11T20:04:03.409Z,5.00
2022-08-11T20:06:30.769Z,5.18
2022-08-11T20:09:00.814Z,7.13
2022-08-11T20:11:33.371Z,6.65
2022-08-11T20:14:01.144Z,6.30
2022-08-11T20:16:28.123Z,5.85
2022-08-11T20:18:55.664Z,5.57
2022-08-11T20:21:29.899Z,6.35
2022-08-11T20:24:01.441Z,5.97
2022-08-11T20:26:31.707Z,6.38
2022-08-11T20:29:00.078Z,6.88
2022-08-11T20:31:26.668Z,4.75
2022-08-11T20:33:54.633Z,7.78
2022-08-11T20:36:21.735Z,6.53
2022-08-11T20:38:49.954Z,8.68
2022-08-11T20:41:16.817Z,7.57
2022-08-11T20:44:07.128Z,5.10
2022-08-11T20:46:33.095Z,5.70
2022-08-11T20:49:02.718Z,8.98
2022-08-11T20:51:29.351Z,6.65
2022-08-11T20:54:05.860Z,9.75
2022-08-11T20:56:35.707Z,5.25
2022-08-11T20:59:18.944Z,8.80
2022-08-11T21:04:36.248Z,7.45
2022-08-11T21:07:28.167Z,7.72
2022-08-11T21:09:58.247Z,6.68
2022-08-11T21:12:28.929Z,7.80
2022-08-11T21:14:56.368Z,6.93
2022-08-11T21:17:27.637Z,6.00
2022-08-11T21:20:06.881Z,6.32
2022-08-11T21:22:43.346Z,8.20
2022-08-11T21:25:27.760Z,5.28
2022-08-11T21:27:59.385Z,5.78
2022-08-11T21:30:29.275Z,9.15
2022-08-11T21:32:55.763Z,6.55
2022-08-11T21:35:23.212Z,6.82
2022-08-11T21:37:51.826Z,7.70
2022-08-11T21:40:20.183Z,7.15
2022-08-11T21:42:49.900Z,6.85
2022-08-11T21:45:17.854Z,7.63
2022-08-11T21:47:44.637Z,6.60
2022-08-11T21:50:11.483Z,7.72
2022-08-11T21:52:38.778Z,6.82
2022-08-11T21:55:05.692Z,7.60
2022-08-11T21:57:32.605Z,5.70
2022-08-11T21:59:59.777Z,5.85
2022-08-11T22:02:27.115Z,6.93
2022-08-11T22:04:53.749Z,7.28
2022-08-11T22:07:22.073Z,6.93
2022-08-11T22:09:49.102Z,6.75
2022-08-11T22:12:33.892Z,6.50
2022-08-11T22:15:02.119Z,7.82
2022-08-11T22:17:28.493Z,8.13
2022-08-11T22:19:56.029Z,6.75
2022-08-11T22:22:25.606Z,7.05
2022-08-11T22:24:53.040Z,6.93
2022-08-11T22:27:20.781Z,5.78
2022-08-11T22:29:51.073Z,6.97
2022-08-11T22:32:19.508Z,6.70
2022-08-11T22:34:52.692Z,7.07
2022-08-11T22:37:26.941Z,9.18
2022-08-11T22:39:59.653Z,6.75
2022-08-11T22:42:33.474Z,7.50
2022-08-11T22:45:01.090Z,6.45
2022-08-11T22:47:34.905Z,7.72
2022-08-11T22:50:07.629Z,8.88
2022-08-11T22:52:35.008Z,7.45
2022-08-11T22:55:02.445Z,8.20
2022-08-11T22:57:30.062Z,7.80
2022-08-11T22:59:57.980Z,8.35
2022-08-11T23:02:27.958Z,7.70
2022-08-11T23:04:55.634Z,7.70
2022-08-11T23:07:49.258Z,8.35
2022-08-11T23:10:10.193Z,7.95
2022-08-11T23:12:38.784Z,7.32
2022-08-11T23:15:06.085Z,9.48
2022-08-11T23:17:32.690Z,7.80
2022-08-11T23:20:06.600Z,7.78
2022-08-11T23:22:50.160Z,7.50
2022-08-11T23:25:17.777Z,8.25
2022-08-11T23:27:45.729Z,8.40
2022-08-11T23:30:12.529Z,8.48
2022-08-11T23:32:40.355Z,7.07
2022-08-11T23:35:38.771Z,7.80
2022-08-11T23:37:54.457Z,7.63
2022-08-11T23:40:21.544Z,8.18
2022-08-11T23:42:49.634Z,7.80
2022-08-11T23:45:22.261Z,9.75
2022-08-11T23:47:51.053Z,7.68
2022-08-11T23:50:18.873Z,11.32
2022-08-11T23:52:45.705Z,10.40
2022-08-11T23:55:12.385Z,9.20
2022-08-11T23:57:47.761Z,9.13
